sensor_id;sensor_type;location;lat;lon;timestamp;P1;durP1;ratioP1;P2;durP2;ratioP2
24743;SDS011;12844;52.110;5.548;2024-02-15T00:00:39;3.33;;;2.55;;
24743;SDS011;12844;52.110;5.548;2024-02-15T00:03:05;3.13;;;2.30;;
24743;SDS011;12844;52.110;5.548;2024-02-15T00:05:38;3.63;;;2.67;;
24743;SDS011;12844;52.110;5.548;2024-02-15T00:08:04;4.25;;;2.75;;
24743;SDS011;12844;52.110;5.548;2024-02-15T00:10:31;3.65;;;2.70;;
24743;SDS011;12844;52.110;5.548;2024-02-15T00:12:57;3.80;;;2.80;;
24743;SDS011;12844;52.110;5.548;2024-02-15T00:15:23;2.80;;;2.30;;
24743;SDS011;12844;52.110;5.548;2024-02-15T00:17:49;3.47;;;2.67;;
24743;SDS011;12844;52.110;5.548;2024-02-15T00:20:15;3.13;;;2.50;;
24743;SDS011;12844;52.110;5.548;2024-02-15T00:22:42;3.13;;;2.40;;
24743;SDS011;12844;52.110;5.548;2024-02-15T00:25:08;2.75;;;2.35;;
24743;SDS011;12844;52.110;5.548;2024-02-15T00:27:36;3.33;;;2.50;;
24743;SDS011;12844;52.110;5.548;2024-02-15T00:30:03;4.13;;;2.90;;
24743;SDS011;12844;52.110;5.548;2024-02-15T00:32:32;3.35;;;2.90;;
24743;SDS011;12844;52.110;5.548;2024-02-15T00:34:58;3.80;;;2.50;;
24743;SDS011;12844;52.110;5.548;2024-02-15T00:37:24;2.78;;;2.33;;
24743;SDS011;12844;52.110;5.548;2024-02-15T00:39:50;2.80;;;2.40;;
24743;SDS011;12844;52.110;5.548;2024-02-15T00:42:15;2.80;;;2.25;;
24743;SDS011;12844;52.110;5.548;2024-02-15T00:44:41;3.08;;;2.40;;
24743;SDS011;12844;52.110;5.548;2024-02-15T00:47:09;2.63;;;2.38;;
24743;SDS011;12844;52.110;5.548;2024-02-15T00:49:37;3.75;;;2.25;;
24743;SDS011;12844;52.110;5.548;2024-02-15T00:52:02;2.70;;;2.08;;
24743;SDS011;12844;52.110;5.548;2024-02-15T00:54:28;3.53;;;2.30;;
24743;SDS011;12844;52.110;5.548;2024-02-15T00:56:54;2.85;;;2.13;;
24743;SDS011;12844;52.110;5.548;2024-02-15T00:59:19;5.10;;;2.78;;
24743;SDS011;12844;52.110;5.548;2024-02-15T01:01:45;3.22;;;2.47;;
24743;SDS011;12844;52.110;5.548;2024-02-15T01:04:12;2.78;;;2.08;;
24743;SDS011;12844;52.110;5.548;2024-02-15T01:06:38;3.15;;;2.33;;
24743;SDS011;12844;52.110;5.548;2024-02-15T01:09:04;3.38;;;2.10;;
24743;SDS011;12844;52.110;5.548;2024-02-15T01:11:30;3.15;;;2.40;;
24743;SDS011;12844;52.110;5.548;2024-02-15T01:13:57;2.97;;;2.25;;
24743;SDS011;12844;52.110;5.548;2024-02-15T01:16:23;3.25;;;2.50;;
24743;SDS011;12844;52.110;5.548;2024-02-15T01:18:52;2.40;;;2.00;;
24743;SDS011;12844;52.110;5.548;2024-02-15T01:21:18;3.58;;;2.53;;
24743;SDS011;12844;52.110;5.548;2024-02-15T01:23:44;3.55;;;2.22;;
24743;SDS011;12844;52.110;5.548;2024-02-15T01:26:11;2.35;;;2.00;;
24743;SDS011;12844;52.110;5.548;2024-02-15T01:28:37;3.20;;;2.55;;
24743;SDS011;12844;52.110;5.548;2024-02-15T01:31:03;3.25;;;2.50;;
24743;SDS011;12844;52.110;5.548;2024-02-15T01:33:29;2.50;;;1.90;;
24743;SDS011;12844;52.110;5.548;2024-02-15T01:35:54;2.80;;;2.40;;
24743;SDS011;12844;52.110;5.548;2024-02-15T01:38:21;2.92;;;2.10;;
24743;SDS011;12844;52.110;5.548;2024-02-15T01:40:47;3.05;;;2.22;;
24743;SDS011;12844;52.110;5.548;2024-02-15T01:43:13;2.85;;;2.38;;
24743;SDS011;12844;52.110;5.548;2024-02-15T01:45:39;2.92;;;2.30;;
24743;SDS011;12844;52.110;5.548;2024-02-15T01:48:05;3.30;;;2.47;;
24743;SDS011;12844;52.110;5.548;2024-02-15T01:50:32;3.50;;;2.42;;
24743;SDS011;12844;52.110;5.548;2024-02-15T01:52:59;2.90;;;2.42;;
24743;SDS011;12844;52.110;5.548;2024-02-15T01:55:26;2.55;;;2.28;;
24743;SDS011;12844;52.110;5.548;2024-02-15T05:13:05;3.08;;;2.22;;
24743;SDS011;12844;52.110;5.548;2024-02-15T05:15:30;2.13;;;1.80;;
24743;SDS011;12844;52.110;5.548;2024-02-15T05:17:58;3.00;;;2.10;;
24743;SDS011;12844;52.110;5.548;2024-02-15T05:20:26;2.30;;;2.10;;
24743;SDS011;12844;52.110;5.548;2024-02-15T05:22:52;2.67;;;2.13;;
24743;SDS011;12844;52.110;5.548;2024-02-15T05:25:21;3.50;;;2.40;;
24743;SDS011;12844;52.110;5.548;2024-02-15T05:27:52;2.13;;;1.92;;
24743;SDS011;12844;52.110;5.548;2024-02-15T05:50:06;2.47;;;1.88;;
24743;SDS011;12844;52.110;5.548;2024-02-15T05:52:32;3.20;;;2.10;;
24743;SDS011;12844;52.110;5.548;2024-02-15T05:54:57;2.38;;;2.00;;
24743;SDS011;12844;52.110;5.548;2024-02-15T05:57:23;2.90;;;1.88;;
24743;SDS011;12844;52.110;5.548;2024-02-15T05:59:49;2.70;;;1.92;;
24743;SDS011;12844;52.110;5.548;2024-02-15T06:02:14;2.63;;;2.05;;
24743;SDS011;12844;52.110;5.548;2024-02-15T07:24:07;2.42;;;1.70;;
24743;SDS011;12844;52.110;5.548;2024-02-15T07:26:33;2.35;;;2.15;;
24743;SDS011;12844;52.110;5.548;2024-02-15T07:29:00;2.72;;;1.77;;
24743;SDS011;12844;52.110;5.548;2024-02-15T07:31:29;2.13;;;1.85;;
24743;SDS011;12844;52.110;5.548;2024-02-15T07:33:55;1.92;;;1.70;;
24743;SDS011;12844;52.110;5.548;2024-02-15T07:36:21;2.47;;;1.80;;
24743;SDS011;12844;52.110;5.548;2024-02-15T07:38:51;2.70;;;1.70;;
24743;SDS011;12844;52.110;5.548;2024-02-15T07:52:07;2.00;;;1.60;;
24743;SDS011;12844;52.110;5.548;2024-02-15T07:54:34;2.20;;;1.80;;
24743;SDS011;12844;52.110;5.548;2024-02-15T07:57:00;2.22;;;1.80;;
24743;SDS011;12844;52.110;5.548;2024-02-15T07:59:25;2.35;;;1.80;;
24743;SDS011;12844;52.110;5.548;2024-02-15T08:01:51;1.70;;;1.60;;
24743;SDS011;12844;52.110;5.548;2024-02-15T08:04:17;2.72;;;2.10;;
24743;SDS011;12844;52.110;5.548;2024-02-15T08:06:43;2.45;;;1.70;;
24743;SDS011;12844;52.110;5.548;2024-02-15T08:09:09;2.10;;;1.48;;
24743;SDS011;12844;52.110;5.548;2024-02-15T08:11:41;1.88;;;1.75;;
24743;SDS011;12844;52.110;5.548;2024-02-15T08:14:07;2.28;;;1.75;;
24743;SDS011;12844;52.110;5.548;2024-02-15T08:16:36;2.15;;;1.58;;
24743;SDS011;12844;52.110;5.548;2024-02-15T08:19:06;1.40;;;1.30;;
24743;SDS011;12844;52.110;5.548;2024-02-15T08:21:32;2.78;;;1.70;;
24743;SDS011;12844;52.110;5.548;2024-02-15T08:24:01;1.80;;;1.45;;
24743;SDS011;12844;52.110;5.548;2024-02-15T08:26:39;1.80;;;1.40;;
24743;SDS011;12844;52.110;5.548;2024-02-15T08:29:06;2.10;;;1.70;;
24743;SDS011;12844;52.110;5.548;2024-02-15T08:31:32;1.83;;;1.52;;
24743;SDS011;12844;52.110;5.548;2024-02-15T08:34:04;2.05;;;1.48;;
24743;SDS011;12844;52.110;5.548;2024-02-15T08:36:30;3.17;;;1.48;;
24743;SDS011;12844;52.110;5.548;2024-02-15T08:38:56;1.40;;;1.25;;
24743;SDS011;12844;52.110;5.548;2024-02-15T08:41:22;1.60;;;1.50;;
24743;SDS011;12844;52.110;5.548;2024-02-15T08:43:51;1.83;;;1.30;;
24743;SDS011;12844;52.110;5.548;2024-02-15T08:46:17;2.08;;;1.58;;
24743;SDS011;12844;52.110;5.548;2024-02-15T08:48:44;2.30;;;1.60;;
24743;SDS011;12844;52.110;5.548;2024-02-15T08:51:11;2.22;;;1.45;;
24743;SDS011;12844;52.110;5.548;2024-02-15T08:53:37;1.63;;;1.40;;
24743;SDS011;12844;52.110;5.548;2024-02-15T08:56:06;2.30;;;1.67;;
24743;SDS011;12844;52.110;5.548;2024-02-15T08:58:33;1.90;;;1.30;;
24743;SDS011;12844;52.110;5.548;2024-02-15T09:01:00;1.80;;;1.27;;
24743;SDS011;12844;52.110;5.548;2024-02-15T09:03:25;2.10;;;1.50;;
24743;SDS011;12844;52.110;5.548;2024-02-15T09:05:51;1.85;;;1.40;;
24743;SDS011;12844;52.110;5.548;2024-02-15T09:08:16;2.20;;;1.65;;
24743;SDS011;12844;52.110;5.548;2024-02-15T09:10:54;1.83;;;1.20;;
24743;SDS011;12844;52.110;5.548;2024-02-15T09:13:20;1.73;;;1.30;;
24743;SDS011;12844;52.110;5.548;2024-02-15T09:15:47;2.25;;;1.30;;
24743;SDS011;12844;52.110;5.548;2024-02-15T09:18:13;1.75;;;1.25;;
24743;SDS011;12844;52.110;5.548;2024-02-15T09:20:38;1.77;;;1.27;;
24743;SDS011;12844;52.110;5.548;2024-02-15T09:23:09;2.08;;;1.50;;
24743;SDS011;12844;52.110;5.548;2024-02-15T09:25:40;2.00;;;1.42;;
24743;SDS011;12844;52.110;5.548;2024-02-15T09:30:35;1.63;;;1.40;;
24743;SDS011;12844;52.110;5.548;2024-02-15T09:33:00;1.58;;;1.40;;
24743;SDS011;12844;52.110;5.548;2024-02-15T09:35:29;1.85;;;1.30;;
24743;SDS011;12844;52.110;5.548;2024-02-15T09:37:55;2.03;;;1.40;;
24743;SDS011;12844;52.110;5.548;2024-02-15T09:40:21;1.75;;;1.38;;
24743;SDS011;12844;52.110;5.548;2024-02-15T09:42:51;1.40;;;1.23;;
24743;SDS011;12844;52.110;5.548;2024-02-15T09:45:17;2.08;;;1.10;;
24743;SDS011;12844;52.110;5.548;2024-02-15T09:47:45;1.85;;;1.33;;
24743;SDS011;12844;52.110;5.548;2024-02-15T09:50:11;1.45;;;1.20;;
24743;SDS011;12844;52.110;5.548;2024-02-15T09:52:39;1.52;;;1.20;;
24743;SDS011;12844;52.110;5.548;2024-02-15T09:55:06;1.33;;;1.23;;
24743;SDS011;12844;52.110;5.548;2024-02-15T09:57:39;1.60;;;1.30;;
24743;SDS011;12844;52.110;5.548;2024-02-15T10:00:10;1.40;;;1.30;;
24743;SDS011;12844;52.110;5.548;2024-02-15T10:02:40;1.67;;;1.20;;
24743;SDS011;12844;52.110;5.548;2024-02-15T10:05:09;1.98;;;1.17;;
24743;SDS011;12844;52.110;5.548;2024-02-15T10:07:42;1.55;;;1.27;;
24743;SDS011;12844;52.110;5.548;2024-02-15T10:10:19;1.95;;;1.10;;
24743;SDS011;12844;52.110;5.548;2024-02-15T10:12:46;2.05;;;1.25;;
24743;SDS011;12844;52.110;5.548;2024-02-15T10:15:35;1.70;;;1.25;;
24743;SDS011;12844;52.110;5.548;2024-02-15T10:18:00;1.17;;;1.08;;
24743;SDS011;12844;52.110;5.548;2024-02-15T10:25:26;1.67;;;1.30;;
24743;SDS011;12844;52.110;5.548;2024-02-15T10:27:53;1.40;;;1.20;;
24743;SDS011;12844;52.110;5.548;2024-02-15T10:30:36;1.40;;;1.20;;
24743;SDS011;12844;52.110;5.548;2024-02-15T10:33:03;1.40;;;1.10;;
24743;SDS011;12844;52.110;5.548;2024-02-15T10:35:29;1.55;;;1.05;;
24743;SDS011;12844;52.110;5.548;2024-02-15T10:38:09;1.85;;;1.00;;
24743;SDS011;12844;52.110;5.548;2024-02-15T10:40:35;1.52;;;1.00;;
24743;SDS011;12844;52.110;5.548;2024-02-15T10:43:05;1.48;;;1.20;;
24743;SDS011;12844;52.110;5.548;2024-02-15T10:45:31;1.90;;;1.25;;
24743;SDS011;12844;52.110;5.548;2024-02-15T10:47:58;1.98;;;1.20;;
24743;SDS011;12844;52.110;5.548;2024-02-15T10:50:24;1.98;;;1.02;;
24743;SDS011;12844;52.110;5.548;2024-02-15T10:52:56;1.65;;;1.00;;
24743;SDS011;12844;52.110;5.548;2024-02-15T10:55:35;1.58;;;1.00;;
24743;SDS011;12844;52.110;5.548;2024-02-15T10:58:06;1.77;;;1.20;;
24743;SDS011;12844;52.110;5.548;2024-02-15T11:00:32;2.00;;;1.17;;
24743;SDS011;12844;52.110;5.548;2024-02-15T11:03:03;1.58;;;1.20;;
24743;SDS011;12844;52.110;5.548;2024-02-15T11:05:36;1.60;;;1.30;;
24743;SDS011;12844;52.110;5.548;2024-02-15T11:08:07;1.52;;;1.00;;
24743;SDS011;12844;52.110;5.548;2024-02-15T11:10:34;1.15;;;1.00;;
24743;SDS011;12844;52.110;5.548;2024-02-15T11:13:01;2.22;;;1.23;;
24743;SDS011;12844;52.110;5.548;2024-02-15T11:15:40;2.63;;;1.20;;
24743;SDS011;12844;52.110;5.548;2024-02-15T11:18:07;1.30;;;1.20;;
24743;SDS011;12844;52.110;5.548;2024-02-15T11:23:01;2.28;;;1.13;;
24743;SDS011;12844;52.110;5.548;2024-02-15T11:25:38;1.40;;;1.00;;
24743;SDS011;12844;52.110;5.548;2024-02-15T11:30:54;1.63;;;1.10;;
24743;SDS011;12844;52.110;5.548;2024-02-15T11:38:36;1.60;;;1.20;;
24743;SDS011;12844;52.110;5.548;2024-02-15T11:46:17;1.75;;;1.15;;
24743;SDS011;12844;52.110;5.548;2024-02-15T11:48:46;1.67;;;1.30;;
24743;SDS011;12844;52.110;5.548;2024-02-15T11:54:08;2.15;;;1.13;;
24743;SDS011;12844;52.110;5.548;2024-02-15T11:59:12;2.15;;;1.10;;
24743;SDS011;12844;52.110;5.548;2024-02-15T12:01:53;2.17;;;1.20;;
24743;SDS011;12844;52.110;5.548;2024-02-15T12:04:41;1.40;;;1.00;;
24743;SDS011;12844;52.110;5.548;2024-02-15T12:07:25;1.50;;;1.15;;
24743;SDS011;12844;52.110;5.548;2024-02-15T12:10:19;1.42;;;0.90;;
24743;SDS011;12844;52.110;5.548;2024-02-15T12:13:03;1.48;;;1.10;;
24743;SDS011;12844;52.110;5.548;2024-02-15T12:15:57;2.47;;;1.20;;
24743;SDS011;12844;52.110;5.548;2024-02-15T12:18:42;1.20;;;1.10;;
24743;SDS011;12844;52.110;5.548;2024-02-15T12:21:09;1.60;;;1.15;;
24743;SDS011;12844;52.110;5.548;2024-02-15T12:23:50;1.45;;;1.00;;
24743;SDS011;12844;52.110;5.548;2024-02-15T12:26:20;1.75;;;1.30;;
24743;SDS011;12844;52.110;5.548;2024-02-15T12:28:52;1.88;;;1.20;;
24743;SDS011;12844;52.110;5.548;2024-02-15T12:31:22;1.85;;;1.33;;
24743;SDS011;12844;52.110;5.548;2024-02-15T12:34:02;1.67;;;0.90;;
24743;SDS011;12844;52.110;5.548;2024-02-15T12:36:32;1.92;;;1.10;;
24743;SDS011;12844;52.110;5.548;2024-02-15T12:38:59;1.65;;;1.27;;
24743;SDS011;12844;52.110;5.548;2024-02-15T12:41:26;1.30;;;1.02;;
24743;SDS011;12844;52.110;5.548;2024-02-15T12:43:52;1.48;;;1.15;;
24743;SDS011;12844;52.110;5.548;2024-02-15T12:46:19;1.45;;;0.93;;
24743;SDS011;12844;52.110;5.548;2024-02-15T12:48:45;1.35;;;1.08;;
24743;SDS011;12844;52.110;5.548;2024-02-15T12:51:14;2.10;;;0.98;;
24743;SDS011;12844;52.110;5.548;2024-02-15T12:53:40;1.70;;;1.13;;
24743;SDS011;12844;52.110;5.548;2024-02-15T12:56:09;1.20;;;1.00;;
24743;SDS011;12844;52.110;5.548;2024-02-15T12:58:34;1.80;;;1.20;;
24743;SDS011;12844;52.110;5.548;2024-02-15T13:01:00;1.52;;;1.08;;
24743;SDS011;12844;52.110;5.548;2024-02-15T13:03:26;0.95;;;0.80;;
24743;SDS011;12844;52.110;5.548;2024-02-15T13:05:52;1.20;;;1.02;;
24743;SDS011;12844;52.110;5.548;2024-02-15T13:08:18;1.10;;;0.90;;
24743;SDS011;12844;52.110;5.548;2024-02-15T13:10:45;1.95;;;1.10;;
24743;SDS011;12844;52.110;5.548;2024-02-15T13:13:12;1.48;;;0.90;;
24743;SDS011;12844;52.110;5.548;2024-02-15T13:15:42;1.35;;;1.10;;
24743;SDS011;12844;52.110;5.548;2024-02-15T13:18:09;1.80;;;1.15;;
24743;SDS011;12844;52.110;5.548;2024-02-15T13:20:36;1.20;;;1.00;;
24743;SDS011;12844;52.110;5.548;2024-02-15T13:23:06;2.90;;;1.20;;
24743;SDS011;12844;52.110;5.548;2024-02-15T13:25:37;1.10;;;0.90;;
24743;SDS011;12844;52.110;5.548;2024-02-15T13:28:04;1.20;;;1.08;;
24743;SDS011;12844;52.110;5.548;2024-02-15T13:30:30;1.08;;;0.98;;
24743;SDS011;12844;52.110;5.548;2024-02-15T13:32:56;1.77;;;1.00;;
24743;SDS011;12844;52.110;5.548;2024-02-15T13:35:22;1.70;;;0.90;;
24743;SDS011;12844;52.110;5.548;2024-02-15T13:37:51;1.38;;;0.88;;
24743;SDS011;12844;52.110;5.548;2024-02-15T13:40:23;1.17;;;0.88;;
24743;SDS011;12844;52.110;5.548;2024-02-15T13:42:59;1.27;;;1.00;;
24743;SDS011;12844;52.110;5.548;2024-02-15T13:45:28;1.65;;;1.17;;
24743;SDS011;12844;52.110;5.548;2024-02-15T13:48:04;2.17;;;1.10;;
24743;SDS011;12844;52.110;5.548;2024-02-15T13:50:32;1.70;;;1.08;;
24743;SDS011;12844;52.110;5.548;2024-02-15T13:52:58;1.48;;;0.90;;
24743;SDS011;12844;52.110;5.548;2024-02-15T13:55:24;1.63;;;1.00;;
24743;SDS011;12844;52.110;5.548;2024-02-15T13:57:52;1.55;;;1.45;;
24743;SDS011;12844;52.110;5.548;2024-02-15T14:00:20;1.75;;;0.98;;
24743;SDS011;12844;52.110;5.548;2024-02-15T14:02:53;1.25;;;0.98;;
24743;SDS011;12844;52.110;5.548;2024-02-15T14:05:20;2.40;;;1.00;;
24743;SDS011;12844;52.110;5.548;2024-02-15T14:07:54;1.30;;;1.20;;
24743;SDS011;12844;52.110;5.548;2024-02-15T14:10:24;1.17;;;0.88;;
24743;SDS011;12844;52.110;5.548;2024-02-15T14:12:51;1.17;;;0.82;;
24743;SDS011;12844;52.110;5.548;2024-02-15T14:15:18;1.60;;;1.00;;
24743;SDS011;12844;52.110;5.548;2024-02-15T15:27:41;1.20;;;0.90;;
24743;SDS011;12844;52.110;5.548;2024-02-15T15:30:07;1.00;;;0.80;;
24743;SDS011;12844;52.110;5.548;2024-02-15T15:32:33;1.10;;;0.95;;
24743;SDS011;12844;52.110;5.548;2024-02-15T15:34:59;1.15;;;0.80;;
24743;SDS011;12844;52.110;5.548;2024-02-15T15:37:25;2.05;;;0.90;;
24743;SDS011;12844;52.110;5.548;2024-02-15T15:39:50;1.20;;;0.90;;
24743;SDS011;12844;52.110;5.548;2024-02-15T15:42:19;1.13;;;0.80;;
24743;SDS011;12844;52.110;5.548;2024-02-15T17:58:58;1.10;;;0.70;;
24743;SDS011;12844;52.110;5.548;2024-02-15T18:01:24;0.88;;;0.70;;
24743;SDS011;12844;52.110;5.548;2024-02-15T18:03:50;0.80;;;0.73;;
24743;SDS011;12844;52.110;5.548;2024-02-15T18:08:48;0.50;;;0.50;;
24743;SDS011;12844;52.110;5.548;2024-02-15T18:11:15;1.30;;;0.80;;
24743;SDS011;12844;52.110;5.548;2024-02-15T18:13:41;0.98;;;0.60;;
24743;SDS011;12844;52.110;5.548;2024-02-15T19:29:43;0.73;;;0.63;;
24743;SDS011;12844;52.110;5.548;2024-02-15T19:32:09;1.33;;;0.80;;
24743;SDS011;12844;52.110;5.548;2024-02-15T19:34:36;0.88;;;0.70;;
24743;SDS011;12844;52.110;5.548;2024-02-15T19:37:02;0.60;;;0.60;;
24743;SDS011;12844;52.110;5.548;2024-02-15T19:39:30;0.82;;;0.70;;
24743;SDS011;12844;52.110;5.548;2024-02-15T19:41:56;1.45;;;0.77;;
24743;SDS011;12844;52.110;5.548;2024-02-15T19:44:21;0.90;;;0.60;;
24743;SDS011;12844;52.110;5.548;2024-02-15T19:46:47;0.80;;;0.70;;
24743;SDS011;12844;52.110;5.548;2024-02-15T19:49:13;1.02;;;0.60;;
24743;SDS011;12844;52.110;5.548;2024-02-15T19:51:38;1.10;;;0.70;;
24743;SDS011;12844;52.110;5.548;2024-02-15T19:54:04;1.23;;;0.80;;
24743;SDS011;12844;52.110;5.548;2024-02-15T19:56:30;0.60;;;0.52;;
24743;SDS011;12844;52.110;5.548;2024-02-15T19:58:59;0.93;;;0.60;;
24743;SDS011;12844;52.110;5.548;2024-02-15T20:01:26;1.33;;;0.80;;
24743;SDS011;12844;52.110;5.548;2024-02-15T20:03:52;0.90;;;0.70;;
24743;SDS011;12844;52.110;5.548;2024-02-15T20:06:18;0.82;;;0.70;;
24743;SDS011;12844;52.110;5.548;2024-02-15T20:08:45;1.02;;;0.75;;
24743;SDS011;12844;52.110;5.548;2024-02-15T20:11:11;0.80;;;0.60;;
24743;SDS011;12844;52.110;5.548;2024-02-15T20:13:37;0.95;;;0.70;;
24743;SDS011;12844;52.110;5.548;2024-02-15T20:16:03;0.80;;;0.60;;
24743;SDS011;12844;52.110;5.548;2024-02-15T20:18:32;1.13;;;0.70;;
24743;SDS011;12844;52.110;5.548;2024-02-15T20:20:59;1.20;;;0.82;;
24743;SDS011;12844;52.110;5.548;2024-02-15T20:23:25;0.60;;;0.60;;
24743;SDS011;12844;52.110;5.548;2024-02-15T20:25:51;1.05;;;0.80;;
24743;SDS011;12844;52.110;5.548;2024-02-15T20:28:17;0.50;;;0.50;;
24743;SDS011;12844;52.110;5.548;2024-02-15T20:30:43;0.82;;;0.65;;
24743;SDS011;12844;52.110;5.548;2024-02-15T20:33:09;0.80;;;0.60;;
24743;SDS011;12844;52.110;5.548;2024-02-15T20:35:45;0.93;;;0.60;;
24743;SDS011;12844;52.110;5.548;2024-02-15T20:38:10;1.08;;;0.70;;
24743;SDS011;12844;52.110;5.548;2024-02-15T20:40:40;0.60;;;0.60;;
24743;SDS011;12844;52.110;5.548;2024-02-15T20:43:06;1.33;;;0.60;;
24743;SDS011;12844;52.110;5.548;2024-02-15T20:45:32;0.82;;;0.68;;
24743;SDS011;12844;52.110;5.548;2024-02-15T20:47:58;0.85;;;0.70;;
24743;SDS011;12844;52.110;5.548;2024-02-15T20:50:25;0.70;;;0.63;;
24743;SDS011;12844;52.110;5.548;2024-02-15T20:52:51;0.70;;;0.60;;
24743;SDS011;12844;52.110;5.548;2024-02-15T20:55:17;1.98;;;0.70;;
24743;SDS011;12844;52.110;5.548;2024-02-15T20:57:43;0.77;;;0.70;;
24743;SDS011;12844;52.110;5.548;2024-02-15T21:00:08;0.90;;;0.60;;
24743;SDS011;12844;52.110;5.548;2024-02-15T21:02:42;0.50;;;0.50;;
24743;SDS011;12844;52.110;5.548;2024-02-15T21:05:09;0.73;;;0.70;;
24743;SDS011;12844;52.110;5.548;2024-02-15T21:07:35;1.20;;;0.80;;
24743;SDS011;12844;52.110;5.548;2024-02-15T21:10:03;0.85;;;0.60;;
24743;SDS011;12844;52.110;5.548;2024-02-15T21:12:37;1.02;;;0.70;;
24743;SDS011;12844;52.110;5.548;2024-02-15T21:15:04;0.90;;;0.60;;
24743;SDS011;12844;52.110;5.548;2024-02-15T21:17:34;0.70;;;0.55;;
24743;SDS011;12844;52.110;5.548;2024-02-15T21:20:02;0.70;;;0.70;;
24743;SDS011;12844;52.110;5.548;2024-02-15T21:22:28;0.80;;;0.70;;
24743;SDS011;12844;52.110;5.548;2024-02-15T21:24:54;0.95;;;0.68;;
24743;SDS011;12844;52.110;5.548;2024-02-15T21:27:20;0.80;;;0.60;;
24743;SDS011;12844;52.110;5.548;2024-02-15T21:29:45;1.02;;;0.73;;
24743;SDS011;12844;52.110;5.548;2024-02-15T21:32:12;1.48;;;0.70;;
24743;SDS011;12844;52.110;5.548;2024-02-15T21:34:39;1.08;;;0.70;;
24743;SDS011;12844;52.110;5.548;2024-02-15T21:37:05;1.13;;;0.65;;
24743;SDS011;12844;52.110;5.548;2024-02-15T21:39:30;0.80;;;0.70;;
24743;SDS011;12844;52.110;5.548;2024-02-15T21:41:59;1.02;;;0.68;;
24743;SDS011;12844;52.110;5.548;2024-02-15T21:44:26;1.13;;;0.60;;
24743;SDS011;12844;52.110;5.548;2024-02-15T21:46:52;0.68;;;0.60;;
24743;SDS011;12844;52.110;5.548;2024-02-15T21:49:18;0.65;;;0.60;;
24743;SDS011;12844;52.110;5.548;2024-02-15T21:51:43;0.88;;;0.70;;
24743;SDS011;12844;52.110;5.548;2024-02-15T21:54:09;0.90;;;0.70;;
24743;SDS011;12844;52.110;5.548;2024-02-15T21:56:34;0.50;;;0.50;;
24743;SDS011;12844;52.110;5.548;2024-02-15T21:59:00;1.00;;;0.60;;
24743;SDS011;12844;52.110;5.548;2024-02-15T22:01:25;0.98;;;0.75;;
24743;SDS011;12844;52.110;5.548;2024-02-15T22:03:51;0.98;;;0.75;;
24743;SDS011;12844;52.110;5.548;2024-02-15T22:06:17;1.10;;;0.80;;
24743;SDS011;12844;52.110;5.548;2024-02-15T22:08:43;0.95;;;0.60;;
24743;SDS011;12844;52.110;5.548;2024-02-15T22:11:10;1.73;;;0.70;;
24743;SDS011;12844;52.110;5.548;2024-02-15T22:13:36;1.10;;;0.73;;
24743;SDS011;12844;52.110;5.548;2024-02-15T22:16:02;0.88;;;0.60;;
24743;SDS011;12844;52.110;5.548;2024-02-15T22:18:28;0.88;;;0.77;;
24743;SDS011;12844;52.110;5.548;2024-02-15T22:20:54;0.57;;;0.50;;
24743;SDS011;12844;52.110;5.548;2024-02-15T22:23:22;1.25;;;0.80;;
24743;SDS011;12844;52.110;5.548;2024-02-15T22:25:49;1.05;;;0.70;;
24743;SDS011;12844;52.110;5.548;2024-02-15T22:28:16;0.75;;;0.65;;
24743;SDS011;12844;52.110;5.548;2024-02-15T22:30:43;0.93;;;0.63;;
24743;SDS011;12844;52.110;5.548;2024-02-15T22:33:09;0.90;;;0.60;;
24743;SDS011;12844;52.110;5.548;2024-02-15T22:35:34;1.15;;;0.82;;
24743;SDS011;12844;52.110;5.548;2024-02-15T22:38:00;1.42;;;0.70;;
24743;SDS011;12844;52.110;5.548;2024-02-15T22:40:26;0.88;;;0.68;;
24743;SDS011;12844;52.110;5.548;2024-02-15T22:42:54;0.80;;;0.77;;
24743;SDS011;12844;52.110;5.548;2024-02-15T22:45:19;0.80;;;0.60;;
24743;SDS011;12844;52.110;5.548;2024-02-15T22:47:45;0.70;;;0.70;;
24743;SDS011;12844;52.110;5.548;2024-02-15T22:50:11;0.85;;;0.65;;
24743;SDS011;12844;52.110;5.548;2024-02-15T22:52:37;0.98;;;0.77;;
24743;SDS011;12844;52.110;5.548;2024-02-15T22:55:04;0.60;;;0.60;;
24743;SDS011;12844;52.110;5.548;2024-02-15T22:57:31;0.90;;;0.60;;
24743;SDS011;12844;52.110;5.548;2024-02-15T22:59:56;1.13;;;0.70;;
24743;SDS011;12844;52.110;5.548;2024-02-15T23:02:22;0.70;;;0.68;;
24743;SDS011;12844;52.110;5.548;2024-02-15T23:04:49;1.50;;;0.63;;
24743;SDS011;12844;52.110;5.548;2024-02-15T23:07:14;0.80;;;0.70;;
24743;SDS011;12844;52.110;5.548;2024-02-15T23:09:40;1.00;;;0.60;;
24743;SDS011;12844;52.110;5.548;2024-02-15T23:12:07;0.70;;;0.60;;
24743;SDS011;12844;52.110;5.548;2024-02-15T23:14:33;0.70;;;0.70;;
24743;SDS011;12844;52.110;5.548;2024-02-15T23:16:59;1.27;;;0.70;;
24743;SDS011;12844;52.110;5.548;2024-02-15T23:19:24;0.63;;;0.60;;
24743;SDS011;12844;52.110;5.548;2024-02-15T23:21:51;1.10;;;0.70;;
24743;SDS011;12844;52.110;5.548;2024-02-15T23:24:16;0.93;;;0.80;;
24743;SDS011;12844;52.110;5.548;2024-02-15T23:26:43;0.90;;;0.70;;
24743;SDS011;12844;52.110;5.548;2024-02-15T23:29:10;0.88;;;0.70;;
24743;SDS011;12844;52.110;5.548;2024-02-15T23:31:36;0.80;;;0.60;;
24743;SDS011;12844;52.110;5.548;2024-02-15T23:34:04;0.70;;;0.60;;
24743;SDS011;12844;52.110;5.548;2024-02-15T23:36:30;1.63;;;0.80;;
24743;SDS011;12844;52.110;5.548;2024-02-15T23:39:14;1.10;;;0.82;;
24743;SDS011;12844;52.110;5.548;2024-02-15T23:41:58;0.88;;;0.80;;
24743;SDS011;12844;52.110;5.548;2024-02-15T23:44:28;0.82;;;0.70;;
24743;SDS011;12844;52.110;5.548;2024-02-15T23:47:00;1.13;;;0.70;;
24743;SDS011;12844;52.110;5.548;2024-02-15T23:49:26;0.82;;;0.52;;
24743;SDS011;12844;52.110;5.548;2024-02-15T23:51:51;1.25;;;0.70;;
24743;SDS011;12844;52.110;5.548;2024-02-15T23:54:17;1.13;;;0.80;;
24743;SDS011;12844;52.110;5.548;2024-02-15T23:56:42;0.88;;;0.70;;
24743;SDS011;12844;52.110;5.548;2024-02-15T23:59:08;1.42;;;0.80;;
